Time;durP1;ratioP1;P1;durP2;ratioP2;P2;SDS_P1;SDS_P2;PMS_P1;PMS_P2;Temp;Humidity;BMP_temperature;BMP_pressure;BME280_temperature;BME280_humidity;BME280_pressure;Samples;Min_cycle;Max_cycle;Signal;HPM_P1;HPM_P2
2023/03/19 00:01:06;;;;;;;6.35;3.70;;;;;;;1.09;59.02;95335.50;5076325;28;20500;-74
2023/03/19 00:03:32;;;;;;;6.70;3.72;;;;;;;1.08;58.45;95318.44;5110818;28;20485;-74
2023/03/19 00:05:57;;;;;;;6.72;3.63;;;;;;;1.05;58.70;95321.97;5090270;28;20130;-75
2023/03/19 00:08:22;;;;;;;5.85;3.67;;;;;;;1.05;58.59;95336.47;5073763;28;20028;-74
2023/03/19 00:10:48;;;;;;;10.25;4.47;;;;;;;1.04;59.15;95327.97;5104592;28;20027;-74
2023/03/19 00:13:14;;;;;;;6.60;4.38;;;;;;;0.98;59.01;95332.50;5110715;28;20517;-74
2023/03/19 00:15:40;;;;;;;6.88;4.13;;;;;;;1.08;59.60;95323.56;5093837;28;20106;-74
2023/03/19 00:18:06;;;;;;;6.93;4.00;;;;;;;1.21;58.96;95318.84;5110363;28;20024;-74
2023/03/19 00:20:31;;;;;;;7.30;3.75;;;;;;;1.25;58.42;95315.25;5076249;28;20032;-74
2023/03/19 00:22:57;;;;;;;5.63;3.85;;;;;;;1.24;58.90;95311.03;5093732;28;20554;-74
2023/03/19 00:25:23;;;;;;;6.43;4.00;;;;;;;1.16;59.24;95311.31;5112250;28;20093;-74
2023/03/19 00:27:48;;;;;;;6.68;3.90;;;;;;;1.08;59.13;95310.78;5092647;28;20015;-74
2023/03/19 00:30:14;;;;;;;6.32;3.90;;;;;;;1.09;58.65;95315.03;5110800;28;20035;-74
2023/03/19 00:32:39;;;;;;;5.90;3.97;;;;;;;0.85;58.42;95283.50;5093582;28;20034;-75
2023/03/19 00:35:06;;;;;;;6.45;4.45;;;;;;;0.86;59.04;95275.78;5093412;28;20065;-74
2023/03/19 00:37:31;;;;;;;7.55;4.38;;;;;;;1.06;58.85;95298.06;5092376;28;20417;-74
2023/03/19 00:39:57;;;;;;;6.68;4.45;;;;;;;0.90;58.84;95302.09;5093610;28;20032;-74
2023/03/19 00:42:22;;;;;;;6.93;4.53;;;;;;;0.95;59.07;95299.34;5110252;28;20059;-75
2023/03/19 00:44:48;;;;;;;7.93;4.13;;;;;;;0.82;58.99;95286.19;5110505;28;20035;-74
2023/03/19 00:47:13;;;;;;;9.38;4.43;;;;;;;0.98;59.09;95281.34;5109416;28;20035;-74
2023/03/19 00:49:39;;;;;;;8.32;4.55;;;;;;;0.93;59.33;95294.28;5092878;28;20101;-74
2023/03/19 00:52:04;;;;;;;13.07;5.72;;;;;;;0.94;59.11;95290.81;5093370;28;20481;-74
2023/03/19 00:54:31;;;;;;;9.15;5.20;;;;;;;0.86;58.71;95273.22;5093239;28;20081;-74
2023/03/19 00:56:56;;;;;;;8.90;4.20;;;;;;;1.05;58.52;95298.09;5109557;28;20081;-74
2023/03/19 00:59:24;;;;;;;6.55;4.35;;;;;;;1.01;58.52;95297.41;5109992;28;20406;-74
2023/03/19 01:01:50;;;;;;;8.43;4.72;;;;;;;0.99;58.77;95290.66;5110201;28;20485;-74
2023/03/19 01:04:16;;;;;;;7.20;4.70;;;;;;;0.97;58.01;95292.44;5109988;28;20105;-74
2023/03/19 01:06:43;;;;;;;7.20;4.75;;;;;;;1.02;58.33;95291.38;5111434;28;20513;-74
2023/03/19 01:09:08;;;;;;;9.27;4.80;;;;;;;0.97;58.20;95297.56;5109978;28;20032;-74
2023/03/19 01:11:34;;;;;;;7.40;4.10;;;;;;;0.95;58.63;95291.66;5092427;28;20671;-74
2023/03/19 01:14:00;;;;;;;7.90;4.45;;;;;;;0.75;59.27;95288.13;5109821;28;20026;-73
2023/03/19 01:16:25;;;;;;;6.82;4.43;;;;;;;0.84;58.97;95290.34;5110774;28;20663;-74
2023/03/19 01:18:51;;;;;;;8.73;4.63;;;;;;;0.85;59.32;95286.06;5109169;28;20027;-74
2023/03/19 01:21:17;;;;;;;9.88;5.78;;;;;;;0.89;59.05;95288.47;5109894;28;20593;-74
2023/03/19 01:23:42;;;;;;;10.85;5.40;;;;;;;0.67;59.66;95267.13;5092793;28;20492;-74
2023/03/19 01:26:08;;;;;;;9.95;5.53;;;;;;;0.69;59.73;95265.31;5109915;28;20044;-74
2023/03/19 01:28:33;;;;;;;8.40;5.95;;;;;;;0.71;60.44;95280.63;5110148;28;20028;-74
2023/03/19 01:31:05;;;;;;;8.98;5.22;;;;;;;0.65;60.33;95264.63;5076068;28;20046;-74
2023/03/19 01:33:30;;;;;;;9.70;5.70;;;;;;;0.62;61.03;95276.69;5093012;28;20028;-74
2023/03/19 01:35:58;;;;;;;10.90;5.97;;;;;;;0.79;61.20;95271.78;5092298;28;20032;-74
2023/03/19 01:38:24;;;;;;;10.80;6.43;;;;;;;0.70;61.00;95273.81;5109298;28;20076;-74
2023/03/19 01:40:49;;;;;;;12.57;6.00;;;;;;;0.73;60.49;95277.13;5109739;28;20115;-74
2023/03/19 01:43:16;;;;;;;10.18;6.35;;;;;;;0.71;60.83;95271.22;5092648;28;20106;-74
2023/03/19 01:45:42;;;;;;;11.00;6.70;;;;;;;0.69;60.84;95273.00;5091631;28;20040;-74
2023/03/19 01:48:19;;;;;;;12.80;6.40;;;;;;;0.55;61.23;95277.78;5092860;28;20034;-74
2023/03/19 01:50:44;;;;;;;9.88;6.32;;;;;;;0.46;61.63;95283.25;5097430;28;20516;-74
2023/03/19 01:53:13;;;;;;;10.45;7.00;;;;;;;0.41;62.03;95283.41;5113628;28;20028;-74
2023/03/19 01:55:38;;;;;;;12.35;6.28;;;;;;;0.47;61.88;95277.22;5094834;28;20589;-74
2023/03/19 01:58:05;;;;;;;10.95;6.20;;;;;;;0.17;62.44;95273.16;5113552;28;20027;-74
2023/03/19 02:00:31;;;;;;;10.45;6.15;;;;;;;0.22;62.44;95280.66;5113515;28;20489;-74
2023/03/19 02:02:58;;;;;;;9.55;6.18;;;;;;;0.21;62.46;95263.66;5113524;28;20095;-74
2023/03/19 02:05:27;;;;;;;9.35;6.15;;;;;;;0.31;61.43;95274.41;5095437;28;20559;-74
2023/03/19 02:07:54;;;;;;;8.80;6.00;;;;;;;0.39;61.75;95277.50;5096882;28;20119;-74
2023/03/19 02:10:20;;;;;;;11.25;6.47;;;;;;;0.47;61.11;95282.34;5114900;28;20027;-74
2023/03/19 02:12:46;;;;;;;13.98;7.13;;;;;;;0.35;61.43;95287.00;5095925;28;20066;-75
2023/03/19 02:15:11;;;;;;;12.90;7.63;;;;;;;0.35;62.07;95286.19;5084574;28;20045;-73
2023/03/19 02:17:37;;;;;;;15.05;8.45;;;;;;;0.34;61.20;95272.56;5113152;28;20035;-74
2023/03/19 02:20:02;;;;;;;15.75;9.85;;;;;;;0.48;60.91;95284.03;5095873;28;20540;-74
2023/03/19 02:22:28;;;;;;;17.70;9.77;;;;;;;0.04;61.87;95273.63;5113726;28;20153;-74
2023/03/19 02:25:40;;;;;;;19.30;9.48;;;;;;;0.23;61.32;95290.00;5095862;28;20024;-74
2023/03/19 02:28:08;;;;;;;21.70;10.50;;;;;;;0.25;61.83;95287.38;5074542;28;20465;-74
2023/03/19 02:30:33;;;;;;;18.65;10.52;;;;;;;0.17;61.68;95288.50;5074736;28;20102;-74
2023/03/19 02:32:59;;;;;;;15.05;8.20;;;;;;;0.07;61.86;95274.38;5048529;28;20502;-74
2023/03/19 02:35:25;;;;;;;15.43;8.15;;;;;;;-0.08;62.83;95287.66;5094812;28;20031;-74
2023/03/19 02:37:50;;;;;;;13.43;6.60;;;;;;;-0.12;63.44;95299.69;5114071;28;20515;-74
2023/03/19 02:40:21;;;;;;;13.32;8.05;;;;;;;-0.18;62.74;95266.69;5112034;28;20516;-74
2023/03/19 02:42:47;;;;;;;14.30;8.07;;;;;;;-0.20;63.38;95271.00;5112725;28;20023;-73
2023/03/19 02:45:13;;;;;;;12.40;7.47;;;;;;;-0.16;63.97;95285.38;5112337;28;20059;-74
2023/03/19 02:47:38;;;;;;;13.18;7.18;;;;;;;-0.19;63.64;95264.22;5112681;28;20043;-74
2023/03/19 02:50:04;;;;;;;12.82;6.90;;;;;;;-0.21;63.70;95256.59;5113370;28;20036;-74
2023/03/19 02:52:29;;;;;;;11.13;7.05;;;;;;;-0.12;63.92;95281.81;5113884;28;20160;-74
2023/03/19 02:54:55;;;;;;;11.45;6.78;;;;;;;-0.24;63.55;95254.97;5113557;28;20023;-74
2023/03/19 02:57:20;;;;;;;11.20;6.88;;;;;;;-0.24;64.07;95269.47;5112432;28;20032;-74
2023/03/19 02:59:46;;;;;;;12.40;6.78;;;;;;;-0.02;63.91;95280.63;5112706;28;20035;-74
2023/03/19 03:02:11;;;;;;;11.93;7.25;;;;;;;-0.25;64.14;95262.69;5095005;28;20066;-74
2023/03/19 03:04:37;;;;;;;13.07;7.35;;;;;;;-0.04;64.07;95284.13;5091453;28;20498;-74
2023/03/19 03:07:03;;;;;;;11.18;7.03;;;;;;;-0.26;63.51;95235.47;5093064;28;20063;-74
2023/03/19 03:09:29;;;;;;;11.60;6.47;;;;;;;-0.05;62.92;95285.00;5077904;28;20031;-74
2023/03/19 03:11:55;;;;;;;16.05;6.50;;;;;;;0.00;62.52;95275.47;5112087;28;20032;-74
2023/03/19 03:14:20;;;;;;;9.55;5.32;;;;;;;0.06;61.97;95287.22;5112010;28;20089;-74
2023/03/19 03:16:46;;;;;;;11.57;5.82;;;;;;;-0.08;62.42;95282.56;5113125;28;20529;-75
2023/03/19 03:19:12;;;;;;;8.82;5.50;;;;;;;0.17;62.34;95297.88;5111907;28;20035;-74
2023/03/19 03:21:38;;;;;;;9.82;6.05;;;;;;;0.22;61.87;95301.97;5111961;28;20028;-74
2023/03/19 03:24:04;;;;;;;9.15;5.97;;;;;;;0.14;61.97;95301.38;5078199;28;20055;-74
2023/03/19 03:26:29;;;;;;;11.32;6.47;;;;;;;0.06;62.02;95292.31;5094336;28;20071;-74
2023/03/19 03:28:55;;;;;;;10.38;5.35;;;;;;;0.07;62.08;95291.41;5094221;28;20215;-74
2023/03/19 03:31:21;;;;;;;10.23;6.50;;;;;;;0.11;61.59;95306.59;5129118;27;20032;-74
2023/03/19 03:33:46;;;;;;;22.98;12.60;;;;;;;0.27;61.95;95304.34;5111589;28;20028;-74
2023/03/19 03:36:12;;;;;;;9.52;6.38;;;;;;;0.11;62.22;95300.63;5111705;28;20527;-74
2023/03/19 03:38:38;;;;;;;12.63;7.97;;;;;;;0.16;61.51;95320.03;5112420;28;20034;-74
2023/03/19 03:41:04;;;;;;;12.18;7.00;;;;;;;-0.10;62.54;95303.03;5077897;28;20036;-74
2023/03/19 03:43:30;;;;;;;12.32;6.88;;;;;;;-0.30;63.80;95316.47;5094333;28;20496;-74
2023/03/19 03:45:55;;;;;;;11.38;6.18;;;;;;;-0.31;64.05;95324.16;5111205;28;20031;-74
2023/03/19 03:48:21;;;;;;;9.82;6.07;;;;;;;-0.52;64.74;95325.69;5093938;28;20039;-73
2023/03/19 03:50:46;;;;;;;11.13;6.88;;;;;;;-0.69;65.01;95318.56;5112643;28;20413;-74
2023/03/19 03:53:13;;;;;;;12.32;6.82;;;;;;;-0.95;65.06;95317.66;5111571;28;20089;-74
2023/03/19 03:55:38;;;;;;;9.65;6.63;;;;;;;-0.72;64.38;95328.88;5111472;27;20108;-74
2023/03/19 03:58:04;;;;;;;12.93;6.90;;;;;;;-0.86;64.66;95325.88;5111028;28;20020;-74
2023/03/19 04:00:29;;;;;;;12.93;6.97;;;;;;;-0.79;64.78;95329.91;5094146;28;20034;-73
2023/03/19 04:02:55;;;;;;;11.00;7.00;;;;;;;-0.84;64.22;95326.66;5111979;28;20034;-74
2023/03/19 04:05:21;;;;;;;13.07;8.02;;;;;;;-1.04;65.14;95299.22;5111127;27;20570;-74
2023/03/19 04:07:46;;;;;;;15.45;7.53;;;;;;;-0.83;64.39;95326.63;5094042;28;20115;-74
2023/03/19 04:10:12;;;;;;;13.55;8.07;;;;;;;-1.04;65.06;95311.97;5127937;27;20106;-74
2023/03/19 04:12:38;;;;;;;13.70;8.48;;;;;;;-1.09;65.92;95324.84;5110008;27;20035;-74
2023/03/19 04:15:05;;;;;;;13.65;7.97;;;;;;;-1.10;65.23;95289.19;5090276;28;20127;-74
2023/03/19 04:17:30;;;;;;;14.13;8.50;;;;;;;-1.27;66.36;95315.19;5090263;28;20043;-74
2023/03/19 04:19:56;;;;;;;16.70;8.75;;;;;;;-1.13;66.39;95329.22;5090577;28;20024;-73
2023/03/19 04:22:21;;;;;;;15.60;8.35;;;;;;;-1.22;66.67;95318.44;5095148;28;20031;-73
2023/03/19 04:24:47;;;;;;;13.77;8.50;;;;;;;-1.29;66.66;95317.78;5082588;28;20027;-74
2023/03/19 04:27:12;;;;;;;13.60;8.02;;;;;;;-1.46;67.25;95308.06;5107170;28;20035;-73
2023/03/19 04:29:37;;;;;;;13.10;8.05;;;;;;;-1.19;66.92;95328.56;5100542;28;20035;-74
2023/03/19 04:32:03;;;;;;;13.18;7.70;;;;;;;-1.19;66.89;95336.22;5091222;28;20369;-73
2023/03/19 04:34:29;;;;;;;12.88;6.97;;;;;;;-1.37;67.72;95317.97;5110728;28;20084;-74
2023/03/19 04:36:55;;;;;;;10.73;6.72;;;;;;;-1.24;67.47;95335.50;5108296;28;20052;-74
2023/03/19 04:39:20;;;;;;;13.73;6.97;;;;;;;-1.15;67.30;95330.13;5074036;28;20052;-73
2023/03/19 04:41:46;;;;;;;10.38;6.65;;;;;;;-1.07;67.04;95338.38;5110116;28;20059;-73
2023/03/19 04:44:12;;;;;;;10.57;6.03;;;;;;;-1.00;66.85;95334.78;5111867;28;20043;-73
2023/03/19 04:46:37;;;;;;;13.48;6.85;;;;;;;-1.14;66.68;95340.28;5110896;28;20031;-74
2023/03/19 04:49:03;;;;;;;13.02;7.60;;;;;;;-1.38;67.39;95329.06;5106168;28;20469;-73
2023/03/19 04:51:28;;;;;;;10.40;6.65;;;;;;;-1.19;67.01;95341.31;5105362;28;20039;-74
2023/03/19 04:53:54;;;;;;;12.70;6.35;;;;;;;-1.31;67.14;95334.84;5088322;28;20028;-73
2023/03/19 04:56:19;;;;;;;12.77;7.10;;;;;;;-1.43;67.61;95330.91;5086430;28;20040;-73
2023/03/19 04:58:45;;;;;;;9.35;6.05;;;;;;;-1.39;67.77;95340.16;5105708;28;20031;-73
2023/03/19 05:01:10;;;;;;;8.85;5.55;;;;;;;-1.44;67.16;95329.25;5106721;28;20042;-74
2023/03/19 05:03:36;;;;;;;9.07;5.45;;;;;;;-1.32;67.12;95327.22;5087645;28;20062;-73
2023/03/19 05:06:01;;;;;;;12.23;5.75;;;;;;;-1.28;66.64;95344.97;5074173;28;20565;-74
2023/03/19 05:08:27;;;;;;;12.25;7.00;;;;;;;-1.55;67.92;95331.25;5108430;28;20031;-73
2023/03/19 05:10:52;;;;;;;13.25;5.65;;;;;;;-1.41;67.70;95341.91;5108108;28;20036;-74
2023/03/19 05:13:18;;;;;;;9.77;5.05;;;;;;;-1.36;68.02;95336.69;5109087;28;20053;-73
2023/03/19 05:15:44;;;;;;;10.07;6.00;;;;;;;-1.30;67.96;95325.47;5109435;28;20027;-73
2023/03/19 05:18:09;;;;;;;10.63;5.82;;;;;;;-1.28;67.94;95339.00;5109969;28;20496;-73
2023/03/19 05:20:36;;;;;;;10.27;5.47;;;;;;;-1.25;68.56;95334.66;5068837;28;20562;-74
2023/03/19 05:23:01;;;;;;;8.95;5.13;;;;;;;-1.22;68.36;95334.56;5088602;28;20397;-74
2023/03/19 05:25:27;;;;;;;10.65;5.00;;;;;;;-1.17;67.83;95342.06;5109816;28;20513;-74
2023/03/19 05:27:53;;;;;;;9.88;5.97;;;;;;;-1.13;67.96;95344.50;5092573;28;20031;-75
2023/03/19 05:30:18;;;;;;;9.10;5.20;;;;;;;-1.46;68.62;95315.69;5110339;28;20027;-74
2023/03/19 05:32:45;;;;;;;9.60;5.53;;;;;;;-1.55;69.08;95331.25;5093837;28;20085;-74
2023/03/19 05:35:10;;;;;;;9.60;6.05;;;;;;;-1.47;69.66;95344.63;5093406;28;20038;-74
2023/03/19 05:37:36;;;;;;;9.60;5.72;;;;;;;-1.29;69.59;95350.91;5074832;28;20031;-74
2023/03/19 05:40:02;;;;;;;11.38;6.05;;;;;;;-0.93;68.42;95341.38;5110055;28;20084;-74
2023/03/19 05:42:27;;;;;;;9.68;5.90;;;;;;;-0.66;66.69;95349.09;5109233;28;20107;-74
2023/03/19 05:44:53;;;;;;;13.13;6.25;;;;;;;-0.53;64.73;95335.06;5110219;28;20043;-74
2023/03/19 05:47:18;;;;;;;17.15;8.82;;;;;;;-0.32;64.74;95348.03;5091650;28;20040;-74
2023/03/19 05:49:44;;;;;;;17.52;10.00;;;;;;;-0.02;64.18;95336.81;5110037;28;20437;-74
2023/03/19 05:52:10;;;;;;;20.38;11.23;;;;;;;0.08;62.96;95321.19;5109381;28;20031;-74
2023/03/19 05:54:35;;;;;;;18.60;9.88;;;;;;;0.44;63.16;95339.53;5093006;28;20042;-74
2023/03/19 05:57:01;;;;;;;13.13;8.50;;;;;;;0.55;62.32;95322.09;5111522;28;20031;-74
2023/03/19 05:59:27;;;;;;;11.20;7.32;;;;;;;0.91;61.67;95334.44;5074907;28;20047;-74
2023/03/19 06:01:52;;;;;;;10.38;6.38;;;;;;;0.94;60.58;95336.88;5110350;28;20042;-75
2023/03/19 06:04:18;;;;;;;12.93;7.05;;;;;;;1.13;59.84;95338.75;5109403;28;20092;-75
2023/03/19 06:06:43;;;;;;;12.25;7.78;;;;;;;1.51;58.85;95335.56;5110640;28;20028;-75
2023/03/19 06:09:08;;;;;;;20.48;11.68;;;;;;;1.75;56.63;95323.50;5108006;28;20085;-75
2023/03/19 06:11:34;;;;;;;29.75;16.15;;;;;;;2.06;56.79;95339.38;5091939;28;20027;-74
2023/03/19 06:14:00;;;;;;;29.42;15.25;;;;;;;2.28;55.91;95331.63;5110137;28;20039;-75
2023/03/19 06:16:25;;;;;;;28.80;15.43;;;;;;;2.45;56.07;95324.91;5091627;28;20028;-74
2023/03/19 06:18:51;;;;;;;31.02;17.08;;;;;;;2.54;55.60;95325.41;5108719;28;20035;-75
2023/03/19 06:21:16;;;;;;;32.97;17.98;;;;;;;2.81;54.94;95333.59;5112038;28;20031;-75
2023/03/19 06:23:42;;;;;;;33.20;17.00;;;;;;;2.85;54.93;95332.59;5095320;28;20087;-75
2023/03/19 06:26:08;;;;;;;41.17;20.27;;;;;;;3.24;53.93;95331.69;5074485;28;20505;-75
2023/03/19 06:28:33;;;;;;;45.30;20.83;;;;;;;3.40;53.57;95324.94;5085427;28;20036;-75
2023/03/19 06:30:59;;;;;;;48.35;24.83;;;;;;;4.08;52.75;95326.84;5092173;28;20047;-75
2023/03/19 06:33:26;;;;;;;46.40;22.60;;;;;;;4.09;51.53;95323.38;5091641;28;20421;-75
2023/03/19 06:35:52;;;;;;;47.25;23.88;;;;;;;4.13;51.10;95318.00;5107119;28;20123;-75
2023/03/19 06:38:17;;;;;;;44.83;22.83;;;;;;;4.32;50.88;95341.06;5091989;28;20107;-75
2023/03/19 06:40:43;;;;;;;37.58;20.13;;;;;;;4.60;50.72;95348.25;5091883;28;20042;-75
2023/03/19 06:43:08;;;;;;;33.42;17.52;;;;;;;4.90;49.50;95350.97;5109697;28;20028;-75
2023/03/19 06:45:34;;;;;;;31.67;17.52;;;;;;;5.38;48.98;95340.75;5110052;28;20512;-75
2023/03/19 06:48:00;;;;;;;46.65;25.33;;;;;;;6.15;46.94;95346.81;5108369;28;20108;-75
2023/03/19 06:50:26;;;;;;;31.33;18.17;;;;;;;6.42;46.45;95336.66;5108773;28;20508;-75
2023/03/19 06:52:51;;;;;;;18.08;11.98;;;;;;;6.66;45.68;95326.66;5091363;28;20046;-76
2023/03/19 06:55:19;;;;;;;19.48;12.50;;;;;;;6.86;44.74;95346.97;5074821;28;20363;-75
2023/03/19 06:57:47;;;;;;;24.80;14.02;;;;;;;7.44;43.96;95349.50;5090462;28;20048;-75
2023/03/19 07:00:13;;;;;;;33.65;19.65;;;;;;;7.90;42.73;95352.63;5092368;28;20033;-75
2023/03/19 07:02:39;;;;;;;20.90;13.63;;;;;;;8.07;41.52;95331.66;5109884;28;20110;-74
2023/03/19 07:05:05;;;;;;;19.52;11.77;;;;;;;8.54;41.22;95347.63;5109181;28;20063;-74
2023/03/19 07:07:30;;;;;;;17.27;10.45;;;;;;;8.83;39.02;95344.84;5089831;28;20037;-75
2023/03/19 07:09:56;;;;;;;18.30;10.93;;;;;;;8.85;39.19;95351.59;5091031;28;20031;-74
2023/03/19 07:12:21;;;;;;;19.33;10.77;;;;;;;9.00;39.17;95341.97;5108333;28;20028;-74
2023/03/19 07:14:47;;;;;;;15.85;10.93;;;;;;;9.02;39.01;95341.84;5106216;28;20038;-74
2023/03/19 07:17:13;;;;;;;21.95;13.65;;;;;;;9.19;39.55;95349.28;5103556;28;20028;-75
2023/03/19 07:19:38;;;;;;;21.05;14.10;;;;;;;9.07;39.74;95301.72;5073391;28;20063;-76
2023/03/19 07:22:04;;;;;;;19.70;13.23;;;;;;;9.58;39.17;95355.22;5073017;28;20059;-77
2023/03/19 07:24:30;;;;;;;19.52;12.98;;;;;;;9.48;39.53;95344.69;5108283;28;20044;-75
2023/03/19 07:26:56;;;;;;;21.05;13.65;;;;;;;9.40;40.00;95334.84;5106762;28;20493;-75
2023/03/19 07:29:27;;;;;;;17.83;12.30;;;;;;;9.67;39.73;95341.63;5089688;28;20035;-77
2023/03/19 07:31:53;;;;;;;22.95;20.10;;;;;;;9.76;39.20;95338.38;5108712;27;20036;-77
2023/03/19 07:34:18;;;;;;;20.55;12.90;;;;;;;9.52;40.51;95337.50;5094892;28;20039;-78
2023/03/19 07:36:44;;;;;;;14.80;10.07;;;;;;;9.68;39.00;95339.88;5107699;28;20027;-76
2023/03/19 07:39:09;;;;;;;13.32;9.35;;;;;;;9.38;39.44;95341.06;5107536;28;20035;-77
2023/03/19 07:41:35;;;;;;;15.27;10.02;;;;;;;9.22;39.66;95330.97;5105948;28;20431;-79
2023/03/19 07:44:04;;;;;;;14.15;9.27;;;;;;;9.45;39.86;95342.31;5091670;28;20059;-76
2023/03/19 07:46:29;;;;;;;19.83;15.07;;;;;;;9.56;39.47;95338.97;5105007;28;20459;-75
2023/03/19 07:48:55;;;;;;;19.90;13.70;;;;;;;9.72;38.32;95336.94;5107912;28;20039;-74
2023/03/19 07:51:20;;;;;;;18.15;11.43;;;;;;;9.83;37.90;95324.03;5106885;28;20020;-78
2023/03/19 07:53:46;;;;;;;13.65;8.18;;;;;;;9.60;37.97;95337.81;5105742;28;20024;-76
2023/03/19 07:56:11;;;;;;;13.15;9.23;;;;;;;9.57;38.47;95328.47;5088817;28;20089;-77
2023/03/19 07:58:37;;;;;;;15.77;11.98;;;;;;;9.59;38.43;95336.16;5108722;28;20495;-75
2023/03/19 08:01:03;;;;;;;19.65;14.80;;;;;;;9.68;37.75;95334.69;5108781;28;20028;-75
2023/03/19 08:03:28;;;;;;;14.50;10.05;;;;;;;9.63;37.87;95328.03;5105142;28;20028;-75
2023/03/19 08:05:54;;;;;;;13.85;7.97;;;;;;;9.83;37.55;95330.97;5088525;28;20459;-75
2023/03/19 08:08:19;;;;;;;12.70;8.25;;;;;;;9.68;38.45;95300.94;5105794;28;20067;-75
2023/03/19 08:10:46;;;;;;;13.85;10.10;;;;;;;10.06;37.87;95313.75;5090021;28;20031;-75
2023/03/19 08:13:13;;;;;;;17.17;12.43;;;;;;;10.25;37.25;95315.81;5089608;28;20038;-76
2023/03/19 08:15:38;;;;;;;15.25;11.50;;;;;;;10.28;36.53;95321.66;5106179;28;20028;-76
2023/03/19 08:18:04;;;;;;;11.63;8.25;;;;;;;10.33;36.55;95344.69;5089012;28;20035;-76
2023/03/19 08:20:31;;;;;;;13.45;8.80;;;;;;;10.27;35.61;95326.97;5091502;28;20577;-78
2023/03/19 08:22:56;;;;;;;12.15;7.18;;;;;;;10.12;35.35;95336.69;5102638;28;20023;-76
2023/03/19 08:25:22;;;;;;;10.95;7.65;;;;;;;10.33;36.12;95338.66;5108537;28;20459;-76
2023/03/19 08:27:48;;;;;;;11.90;8.23;;;;;;;10.47;36.10;95330.69;5107624;28;20039;-76
2023/03/19 08:30:13;;;;;;;11.90;7.25;;;;;;;10.45;34.82;95335.19;5106428;28;20527;-77
2023/03/19 08:32:39;;;;;;;11.68;7.45;;;;;;;10.31;35.13;95331.00;5106321;28;20034;-74
2023/03/19 08:35:05;;;;;;;10.63;7.28;;;;;;;10.56;35.04;95331.75;5107461;28;20028;-78
2023/03/19 08:37:31;;;;;;;11.02;8.07;;;;;;;10.41;35.21;95321.56;5106212;28;20531;-79
2023/03/19 08:39:56;;;;;;;11.75;8.18;;;;;;;10.55;35.99;95323.16;5108193;28;20026;-79
2023/03/19 08:42:22;;;;;;;12.95;8.82;;;;;;;10.24;36.35;95307.19;5105302;28;20495;-79
2023/03/19 08:44:48;;;;;;;15.90;9.15;;;;;;;10.38;36.15;95320.97;5107724;28;20313;-79
2023/03/19 08:47:13;;;;;;;14.07;9.77;;;;;;;10.25;36.85;95318.41;5105465;28;20028;-76
2023/03/19 08:49:39;;;;;;;14.75;8.90;;;;;;;10.29;37.26;95320.72;5107629;28;20031;-80
2023/03/19 08:52:05;;;;;;;13.27;9.38;;;;;;;10.42;36.17;95312.84;5103470;28;20035;-79
2023/03/19 08:54:31;;;;;;;15.02;9.15;;;;;;;10.60;36.10;95305.44;5107741;28;20031;-80
2023/03/19 08:56:58;;;;;;;14.32;8.98;;;;;;;10.46;36.01;95297.88;5103331;28;20420;-79
2023/03/19 08:59:23;;;;;;;14.57;9.23;;;;;;;10.11;36.91;95309.03;5105089;28;20024;-79
2023/03/19 09:01:50;;;;;;;13.43;8.95;;;;;;;10.20;36.73;95303.19;5107459;28;20027;-79
2023/03/19 09:04:16;;;;;;;13.77;8.15;;;;;;;10.24;37.04;95301.19;5107062;28;20066;-79
2023/03/19 09:06:41;;;;;;;15.32;9.02;;;;;;;9.87;37.26;95298.69;5106526;27;20032;-80
2023/03/19 09:09:07;;;;;;;13.77;8.10;;;;;;;10.15;37.06;95283.69;5091115;28;20046;-79
2023/03/19 09:11:32;;;;;;;15.43;9.50;;;;;;;10.10;36.70;95276.25;5089033;28;20447;-81
2023/03/19 09:13:58;;;;;;;13.45;10.13;;;;;;;10.32;36.70;95293.69;5069990;28;20133;-78
2023/03/19 09:16:25;;;;;;;14.00;8.80;;;;;;;10.03;36.24;95243.91;5119434;27;20035;-78
2023/03/19 09:18:50;;;;;;;12.70;9.10;;;;;;;10.33;36.49;95271.16;5093929;28;20039;-77
2023/03/19 09:21:16;;;;;;;12.68;9.07;;;;;;;10.55;36.19;95283.34;5083467;28;20035;-77
2023/03/19 09:23:41;;;;;;;17.40;10.45;;;;;;;10.45;36.43;95273.66;5105582;28;20505;-76
2023/03/19 09:26:06;;;;;;;16.95;9.50;;;;;;;10.33;36.17;95265.94;5105596;28;20415;-76
2023/03/19 09:28:32;;;;;;;17.65;9.90;;;;;;;10.05;36.58;95267.97;5086795;28;20031;-74
2023/03/19 09:30:57;;;;;;;14.15;9.55;;;;;;;10.11;37.06;95284.84;5126337;27;20459;-74
2023/03/19 09:33:23;;;;;;;18.70;10.18;;;;;;;10.37;37.06;95278.59;5104508;28;20031;-74
2023/03/19 09:35:52;;;;;;;14.68;10.25;;;;;;;10.12;36.76;95273.53;5086537;28;20057;-77
2023/03/19 09:38:18;;;;;;;13.45;9.05;;;;;;;10.40;37.01;95287.94;5070415;28;20127;-74
2023/03/19 09:40:51;;;;;;;14.75;9.45;;;;;;;10.31;36.59;95280.81;5089030;28;20556;-73
2023/03/19 09:43:53;;;;;;;15.20;9.10;;;;;;;10.61;36.65;95275.91;5089448;28;20024;-73
2023/03/19 09:46:22;;;;;;;14.40;9.20;;;;;;;10.69;35.85;95270.97;5104878;28;20031;-74
2023/03/19 09:48:56;;;;;;;13.38;8.98;;;;;;;10.78;35.60;95272.06;5088315;28;20105;-75
2023/03/19 09:51:47;;;;;;;15.00;8.73;;;;;;;10.39;37.05;95265.50;5070980;28;20031;-77
2023/03/19 09:54:34;;;;;;;22.35;11.68;;;;;;;10.63;35.85;95279.22;5070639;28;20030;-76
2023/03/19 09:57:00;;;;;;;14.48;8.98;;;;;;;10.76;35.51;95268.75;5103487;28;20467;-76
2023/03/19 09:59:26;;;;;;;13.43;8.80;;;;;;;10.85;35.54;95262.84;5103930;28;20039;-77
2023/03/19 10:02:35;;;;;;;14.77;9.27;;;;;;;11.04;35.26;95261.44;5106342;28;20413;-76
2023/03/19 10:05:24;;;;;;;16.15;9.48;;;;;;;11.25;35.67;95258.91;5104315;28;20062;-76
2023/03/19 10:07:56;;;;;;;12.88;9.13;;;;;;;11.41;34.76;95259.38;5075459;28;20444;-74
2023/03/19 10:10:36;;;;;;;15.10;9.65;;;;;;;11.41;34.74;95246.34;5090781;28;20036;-75
2023/03/19 10:13:25;;;;;;;18.15;8.80;;;;;;;11.54;34.14;95244.44;5114031;28;20119;-75
2023/03/19 10:15:51;;;;;;;13.88;9.20;;;;;;;11.61;33.91;95243.00;5112084;28;20039;-75
2023/03/19 10:18:17;;;;;;;10.70;8.25;;;;;;;11.59;34.17;95244.91;5095215;28;20539;-75
2023/03/19 10:21:03;;;;;;;12.18;8.48;;;;;;;11.53;33.67;95242.81;5112868;28;20084;-75
2023/03/19 10:23:32;;;;;;;12.73;8.63;;;;;;;11.44;34.23;95235.72;5114233;28;20412;-75
2023/03/19 10:25:58;;;;;;;11.02;8.35;;;;;;;11.59;33.48;95220.66;5112478;28;20030;-75
2023/03/19 10:28:26;;;;;;;13.02;8.35;;;;;;;11.73;33.37;95227.34;5106733;27;20032;-76
2023/03/19 10:31:27;;;;;;;12.57;8.25;;;;;;;11.94;33.29;95223.03;5110200;28;20049;-75
2023/03/19 10:34:20;;;;;;;12.15;8.50;;;;;;;11.98;33.08;95216.63;5110379;28;20028;-75
2023/03/19 10:36:45;;;;;;;13.77;8.90;;;;;;;11.95;33.66;95214.28;5112342;28;20024;-75
2023/03/19 10:39:13;;;;;;;13.80;8.95;;;;;;;11.92;32.92;95195.47;5076140;28;20061;-75
2023/03/19 10:42:15;;;;;;;12.93;8.65;;;;;;;12.26;33.90;95203.94;5076935;28;20389;-74
2023/03/19 10:44:50;;;;;;;15.50;9.43;;;;;;;12.14;32.97;95200.56;5092772;28;20040;-74
2023/03/19 10:47:16;;;;;;;12.93;9.38;;;;;;;11.86;33.21;95181.19;5127519;27;20039;-75
2023/03/19 10:49:42;;;;;;;13.50;9.52;;;;;;;11.96;33.60;95192.50;5092487;28;20035;-75
2023/03/19 10:52:27;;;;;;;15.32;9.38;;;;;;;11.83;33.73;95187.41;5111984;28;20032;-74
2023/03/19 10:55:11;;;;;;;14.80;9.95;;;;;;;11.96;33.78;95184.69;5110404;28;20495;-74
2023/03/19 10:57:37;;;;;;;13.60;9.02;;;;;;;12.16;33.57;95182.22;5110691;28;20134;-75
2023/03/19 11:00:04;;;;;;;13.25;9.07;;;;;;;12.27;33.80;95158.69;5093638;28;20428;-74
2023/03/19 11:02:31;;;;;;;14.07;9.35;;;;;;;12.42;33.14;95178.22;5111976;28;20031;-74
2023/03/19 11:05:12;;;;;;;12.50;9.70;;;;;;;12.32;33.61;95169.56;5113659;28;20047;-74
2023/03/19 11:07:38;;;;;;;14.82;10.02;;;;;;;12.33;33.13;95158.16;5112367;28;20024;-74
2023/03/19 11:10:04;;;;;;;13.57;9.50;;;;;;;12.52;32.71;95153.06;5112248;28;20122;-75
2023/03/19 11:12:33;;;;;;;13.45;9.10;;;;;;;12.58;32.42;95150.88;5112226;28;20130;-75
2023/03/19 11:15:02;;;;;;;14.95;9.95;;;;;;;12.61;32.84;95137.59;5095432;28;20123;-75
2023/03/19 11:17:45;;;;;;;12.95;9.13;;;;;;;12.66;32.98;95138.84;5095671;28;20046;-74
2023/03/19 11:20:30;;;;;;;14.38;8.85;;;;;;;12.71;32.77;95120.22;5112507;27;20092;-74
2023/03/19 11:23:01;;;;;;;14.18;9.18;;;;;;;12.84;32.07;95109.53;5095638;28;20088;-74
2023/03/19 11:25:38;;;;;;;14.53;9.10;;;;;;;12.82;32.52;95121.91;5095500;28;20449;-75
2023/03/19 11:28:14;;;;;;;13.38;8.70;;;;;;;13.06;32.53;95124.13;5095007;28;20030;-75
2023/03/19 11:30:47;;;;;;;12.07;8.50;;;;;;;13.23;32.10;95123.47;5111751;28;20512;-74